^^
Station Historical Data
Daily Summary for June 29, 2017 Units:  English    Metric   Both
« Previous Day
Next Day »
Daily Weekly Monthly Yearly Custom
  High: Low: Average:
Temperature: 81.9 °F 65.3 °F 73.4 °F
Dew Point: 67.4 °F 53.4 °F 61 °F
Humidity: 75% 52% 66%
Wind Speed: 8.0mph 0.0mph 3.1mph
Wind Gust: 20.0mph - -
Wind- - SSW
Pressure: 30.16 in 30.01 in -
Precipitation: 0.00 in    
Historical Graphs
 
 
Tabular Data for June 29, 2017
Time Temperature Dew Point Pressure Wind Wind Speed Wind Gust Humidity Rainfall Rate (Hourly) Conditions
00:00 69.5 °F 53.6 °F 30.12 in SSW 2.0 mph 6.0 mph 57% 0.00 in CLR
00:15 69.2 °F 53.8 °F 30.12 in SSW 2.0 mph 6.0 mph 58% 0.00 in CLR
00:30 69.0 °F 53.6 °F 30.12 in SW 1.0 mph 5.0 mph 58% 0.00 in CLR
00:45 68.6 °F 54.2 °F 30.12 in SSW 1.0 mph 4.0 mph 60% 0.00 in CLR
01:00 68.2 °F 53.8 °F 30.13 in SW 1.0 mph 5.0 mph 60% 0.00 in CLR
01:15 67.7 °F 53.7 °F 30.13 in Calm   3.0 mph 61% 0.00 in CLR
01:30 67.3 °F 53.8 °F 30.13 in South 1.0 mph 4.0 mph 62% 0.00 in CLR
01:45 67.1 °F 53.6 °F 30.14 in SSW 2.0 mph 5.0 mph 62% 0.00 in CLR
02:00 67.0 °F 53.6 °F 30.14 in Calm   5.0 mph 62% 0.00 in CLR
02:15 66.8 °F 53.4 °F 30.14 in SW 1.0 mph 5.0 mph 62% 0.00 in CLR
02:30 67.0 °F 53.5 °F 30.14 in SSW 2.0 mph 7.0 mph 62% 0.00 in CLR
02:45 67.2 °F 53.7 °F 30.14 in SSW 2.0 mph 7.0 mph 62% 0.00 in CLR
03:00 67.0 °F 53.5 °F 30.14 in SSW 1.0 mph 6.0 mph 62% 0.00 in CLR
03:15 66.6 °F 53.6 °F 30.15 in SW 1.0 mph 3.0 mph 63% 0.00 in CLR
03:30 66.1 °F 54.0 °F 30.15 in Calm   3.0 mph 65% 0.00 in CLR
03:45 65.9 °F 53.8 °F 30.15 in Calm   5.0 mph 65% 0.00 in CLR
04:00 65.8 °F 54.1 °F 30.15 in Calm   3.0 mph 66% 0.00 in CLR
04:15 65.7 °F 54.4 °F 30.16 in Calm   4.0 mph 67% 0.00 in CLR
04:30 65.4 °F 54.6 °F 30.16 in SSW 1.0 mph 3.0 mph 68% 0.00 in CLR
04:45 65.3 °F 54.5 °F 30.16 in SSW 2.0 mph 5.0 mph 68% 0.00 in CLR
05:00 65.4 °F 55.0 °F 30.16 in South 2.0 mph 6.0 mph 69% 0.00 in CLR
05:15 65.6 °F 55.1 °F 30.16 in Calm   5.0 mph 69% 0.00 in CLR
05:30 65.5 °F 55.5 °F 30.15 in SSE 2.0 mph 5.0 mph 70% 0.00 in CLR
05:45 65.5 °F 55.5 °F 30.15 in South 1.0 mph 4.0 mph 70% 0.00 in CLR
06:00 65.5 °F 55.8 °F 30.16 in Calm   5.0 mph 71% 0.00 in CLR
06:15 65.6 °F 56.3 °F 30.15 in SSE 1.0 mph 4.0 mph 72% 0.00 in SCT
06:30 65.3 °F 56.4 °F 30.15 in SSW 2.0 mph 4.0 mph 73% 0.00 in SCT
06:45 65.6 °F 56.7 °F 30.16 in SSW 1.0 mph 5.0 mph 73% 0.00 in SCT
07:00 65.8 °F 57.3 °F 30.16 in SSW 1.0 mph 6.0 mph 74% 0.00 in SCT
07:15 65.9 °F 57.7 °F 30.16 in Calm   4.0 mph 75% 0.00 in CLR
07:30 66.4 °F 58.2 °F 30.16 in Calm   3.0 mph 75% 0.00 in CLR
07:45 67.4 °F 58.4 °F 30.16 in SSW 2.0 mph 6.0 mph 73% 0.00 in CLR
08:00 68.8 °F 59.4 °F 30.16 in SSE 1.0 mph 6.0 mph 72% 0.00 in CLR
08:15 70.4 °F 60.1 °F 30.15 in SSE 1.0 mph 6.0 mph 70% 0.00 in CLR
08:30 71.3 °F 60.2 °F 30.15 in SSW 5.0 mph 8.0 mph 68% 0.00 in CLR
08:45 71.8 °F 60.7 °F 30.15 in SW 5.0 mph 13.0 mph 68% 0.00 in CLR
09:00 71.9 °F 60.8 °F 30.15 in SSW 7.0 mph 12.0 mph 68% 0.00 in CLR
09:15 71.3 °F 61.0 °F 30.13 in SSW 2.0 mph 13.0 mph 70% 0.00 in CLR
09:30 71.3 °F 61.4 °F 30.13 in South 3.0 mph 12.0 mph 71% 0.00 in CLR
09:45 72.8 °F 61.6 °F 30.12 in SW 5.0 mph 12.0 mph 68% 0.00 in CLR
10:00 74.1 °F 61.6 °F 30.13 in SW 6.0 mph 13.0 mph 65% 0.00 in CLR
10:15 74.5 °F 61.5 °F 30.13 in SSW 6.0 mph 12.0 mph 64% 0.00 in CLR
10:30 75.4 °F 61.0 °F 30.13 in South 6.0 mph 13.0 mph 61% 0.00 in CLR
10:45 75.4 °F 61.5 °F 30.13 in SW 2.0 mph 13.0 mph 62% 0.00 in CLR
11:00 76.5 °F 62.5 °F 30.12 in SW 6.0 mph 12.0 mph 62% 0.00 in CLR
11:15 76.8 °F 61.4 °F 30.12 in SSW 8.0 mph 14.0 mph 59% 0.00 in CLR
11:30 77.6 °F 61.2 °F 30.11 in South 6.0 mph 15.0 mph 57% 0.00 in CLR
11:45 78.2 °F 62.3 °F 30.11 in SSW 7.0 mph 14.0 mph 58% 0.00 in CLR
12:00 79.0 °F 62.0 °F 30.11 in SSW 5.0 mph 13.0 mph 56% 0.00 in CLR
12:15 79.0 °F 62.0 °F 30.10 in SSW 7.0 mph 20.0 mph 56% 0.00 in FEW
12:30 79.1 °F 61.6 °F 30.09 in SW 6.0 mph 13.0 mph 55% 0.00 in FEW
12:45 79.6 °F 62.6 °F 30.09 in SSW 6.0 mph 15.0 mph 56% 0.00 in FEW
13:00 80.2 °F 62.0 °F 30.09 in SSW 5.0 mph 15.0 mph 54% 0.00 in FEW
13:15 81.2 °F 63.0 °F 30.09 in South 5.0 mph 16.0 mph 54% 0.00 in FEW
13:30 81.4 °F 62.6 °F 30.08 in South 6.0 mph 14.0 mph 53% 0.00 in FEW
13:45 81.8 °F 62.5 °F 30.08 in South 5.0 mph 14.0 mph 52% 0.00 in FEW
14:00 81.5 °F 63.3 °F 30.08 in SW 3.0 mph 16.0 mph 54% 0.00 in FEW
14:15 81.8 °F 63.0 °F 30.07 in South 3.0 mph 15.0 mph 53% 0.00 in SCT
14:30 81.2 °F 63.0 °F 30.07 in SSW 7.0 mph 15.0 mph 54% 0.00 in SCT
14:45 81.9 °F 64.1 °F 30.06 in South 5.0 mph 13.0 mph 55% 0.00 in SCT
15:00 81.3 °F 65.1 °F 30.06 in SW 3.0 mph 12.0 mph 58% 0.00 in SCT
15:15 81.0 °F 64.8 °F 30.06 in SSW 5.0 mph 12.0 mph 58% 0.00 in SCT
15:30 80.2 °F 65.5 °F 30.05 in SSW 1.0 mph 8.0 mph 61% 0.00 in SCT
15:45 80.2 °F 66.5 °F 30.04 in SSW 3.0 mph 14.0 mph 63% 0.00 in SCT
16:00 79.7 °F 66.0 °F 30.04 in SSW 5.0 mph 10.0 mph 63% 0.00 in SCT
16:15 79.9 °F 67.1 °F 30.03 in SW 2.0 mph 9.0 mph 65% 0.00 in FEW
16:45 80.1 °F 66.4 °F 30.03 in SSW 2.0 mph 11.0 mph 63% 0.00 in FEW
17:00 80.1 °F 67.3 °F 30.02 in SSE 3.0 mph 12.0 mph 65% 0.00 in FEW
17:15 80.0 °F 67.2 °F 30.02 in SSW 2.0 mph 12.0 mph 65% 0.00 in FEW
17:30 79.1 °F 66.8 °F 30.02 in SSW 6.0 mph 10.0 mph 66% 0.00 in FEW
17:45 78.6 °F 67.1 °F 30.02 in SW 2.0 mph 13.0 mph 68% 0.00 in FEW
18:00 77.9 °F 66.9 °F 30.03 in SSW 3.0 mph 12.0 mph 69% 0.00 in FEW
18:15 77.5 °F 66.9 °F 30.03 in SSW 3.0 mph 9.0 mph 70% 0.00 in SCT
18:30 77.9 °F 67.4 °F 30.02 in West 1.0 mph 7.0 mph 70% 0.00 in SCT
18:45 77.6 °F 67.0 °F 30.02 in SSW 3.0 mph 12.0 mph 70% 0.00 in SCT
19:00 77.4 °F 67.3 °F 30.02 in South 3.0 mph 8.0 mph 71% 0.00 in SCT
19:15 76.7 °F 67.0 °F 30.02 in SW 6.0 mph 9.0 mph 72% 0.00 in FEW
19:30 76.3 °F 66.6 °F 30.03 in SW 2.0 mph 9.0 mph 72% 0.00 in FEW
19:45 75.9 °F 66.7 °F 30.03 in SSW 2.0 mph 13.0 mph 73% 0.00 in FEW
20:00 75.7 °F 66.1 °F 30.02 in SW 2.0 mph 14.0 mph 72% 0.00 in FEW
20:15 75.2 °F 65.9 °F 30.01 in SW 3.0 mph 12.0 mph 73% 0.00 in FEW
20:30 75.0 °F 66.1 °F 30.01 in SSW 3.0 mph 12.0 mph 74% 0.00 in FEW
20:45 75.0 °F 65.8 °F 30.01 in SSW 5.0 mph 12.0 mph 73% 0.00 in FEW
21:00 74.8 °F 65.6 °F 30.01 in SSW 2.0 mph 9.0 mph 73% 0.00 in FEW
21:15 74.6 °F 65.4 °F 30.02 in SSW 2.0 mph 10.0 mph 73% 0.00 in FEW
21:30 74.4 °F 65.2 °F 30.02 in SSW 7.0 mph 12.0 mph 73% 0.00 in FEW
21:45 74.5 °F 65.3 °F 30.02 in SW 3.0 mph 12.0 mph 73% 0.00 in FEW
22:00 74.7 °F 65.1 °F 30.03 in South 7.0 mph 16.0 mph 72% 0.00 in FEW
22:15 75.1 °F 65.0 °F 30.03 in SSW 3.0 mph 12.0 mph 71% 0.00 in CLR
22:30 75.0 °F 65.0 °F 30.03 in SSW 5.0 mph 13.0 mph 71% 0.00 in CLR
22:45 74.9 °F 65.3 °F 30.03 in SSW 3.0 mph 13.0 mph 72% 0.00 in CLR
23:00 74.8 °F 65.2 °F 30.03 in SSW 5.0 mph 13.0 mph 72% 0.00 in CLR
23:15 74.7 °F 65.1 °F 30.02 in SSW 5.0 mph 12.0 mph 72% 0.00 in CLR
23:30 74.6 °F 65.0 °F 30.03 in SSW 7.0 mph 15.0 mph 72% 0.00 in CLR
23:45 74.8 °F 64.7 °F 30.02 in SSW 6.0 mph 13.0 mph 71% 0.00 in CLR
TarryTown NY Weather
Compliments of Weather Underground - 1.5 mb